Time;durP1;ratioP1;P1;durP2;ratioP2;P2;SDS_P1;SDS_P2;PMS_P1;PMS_P2;Temp;Humidity;BMP_temperature;BMP_pressure;BME280_temperature;BME280_humidity;BME280_pressure;Samples;Min_cycle;Max_cycle;Signal;HPM_P1;HPM_P2
2021/09/25 00:02:35;;;;;;;;;;;14.50;99.90;;;;;;5081601;28;19920;-68
2021/09/25 00:05:25;;;;;;;;;;;14.50;99.90;;;;;;5088738;28;20417;-68
2021/09/25 00:08:15;;;;;;;;;;;14.50;99.90;;;;;;5079875;28;20387;-68
2021/09/25 00:11:04;;;;;;;;;;;14.50;99.90;;;;;;5085101;28;19919;-68
2021/09/25 00:13:54;;;;;;;;;;;14.40;99.90;;;;;;5055609;28;19921;-68
2021/09/25 00:16:43;;;;;;;;;;;14.40;99.90;;;;;;5077561;28;19920;-68
2021/09/25 00:19:32;;;;;;;;;;;14.30;99.90;;;;;;5075342;28;19951;-68
2021/09/25 00:22:21;;;;;;;;;;;14.30;99.90;;;;;;5083728;28;19957;-68
2021/09/25 00:25:12;;;;;;;;;;;14.20;99.90;;;;;;5072738;28;19920;-69
2021/09/25 00:28:01;;;;;;;;;;;14.20;99.90;;;;;;5083562;28;19920;-69
2021/09/25 00:30:49;;;;;;;;;;;14.10;99.90;;;;;;5061516;28;19924;-69
2021/09/25 00:33:39;;;;;;;;;;;14.10;99.90;;;;;;5080856;28;19920;-69
2021/09/25 00:36:32;;;;;;;;;;;14.00;99.90;;;;;;5065771;28;19927;-69
2021/09/25 00:39:23;;;;;;;;;;;13.90;99.90;;;;;;5080732;28;19967;-69
2021/09/25 00:42:13;;;;;;;;;;;13.80;99.90;;;;;;5081563;28;19920;-69
2021/09/25 00:45:01;;;;;;;;;;;13.80;99.90;;;;;;5081081;28;19928;-69
2021/09/25 00:47:51;;;;;;;;;;;13.80;99.90;;;;;;5078280;28;19966;-69
2021/09/25 00:50:39;;;;;;;;;;;13.80;99.90;;;;;;5080372;28;19920;-69
2021/09/25 00:53:29;;;;;;;;;;;13.80;99.90;;;;;;5079514;28;20030;-69
2021/09/25 00:56:22;;;;;;;;;;;13.80;99.90;;;;;;5064386;28;19924;-68
2021/09/25 00:59:12;;;;;;;;;;;13.80;99.90;;;;;;5070979;28;19928;-68
2021/09/25 01:02:03;;;;;;;;;;;13.80;99.90;;;;;;5062327;28;20025;-69
2021/09/25 01:04:53;;;;;;;;;;;13.80;99.90;;;;;;5081197;28;19928;-69
2021/09/25 01:07:41;;;;;;;;;;;13.70;99.90;;;;;;5072871;28;19953;-69
2021/09/25 01:10:55;;;;;;;;;;;13.70;99.90;;;;;;5079159;28;20395;-69
2021/09/25 01:13:44;;;;;;;;;;;13.80;99.90;;;;;;5068834;28;20292;-67
2021/09/25 01:16:34;;;;;;;;;;;13.80;99.90;;;;;;5080438;28;19927;-69
2021/09/25 01:19:23;;;;;;;;;;;13.80;99.90;;;;;;5084473;28;19934;-69
2021/09/25 01:22:16;;;;;;;;;;;13.70;99.90;;;;;;5084186;28;20648;-69
2021/09/25 01:25:06;;;;;;;;;;;13.70;99.90;;;;;;5079908;28;19920;-69
2021/09/25 01:27:56;;;;;;;;;;;13.70;99.90;;;;;;5064145;28;19967;-69
2021/09/25 01:30:45;;;;;;;;;;;13.60;99.90;;;;;;5067444;28;19926;-68
2021/09/25 01:33:34;;;;;;;;;;;13.50;99.90;;;;;;5077873;28;19998;-69
2021/09/25 01:36:49;;;;;;;;;;;13.50;99.90;;;;;;5083135;28;20394;-69
2021/09/25 01:39:44;;;;;;;;;;;13.50;99.90;;;;;;5080736;28;19943;-69
2021/09/25 01:42:33;;;;;;;;;;;13.50;99.90;;;;;;5060085;28;19936;-69
2021/09/25 01:45:21;;;;;;;;;;;13.50;99.90;;;;;;5080272;28;19934;-69
2021/09/25 01:48:34;;;;;;;;;;;13.40;99.90;;;;;;5070434;28;20287;-68
2021/09/25 01:51:26;;;;;;;;;;;13.40;99.90;;;;;;5085222;28;20327;-68
2021/09/25 01:54:15;;;;;;;;;;;13.40;99.90;;;;;;5083708;28;20306;-69
2021/09/25 01:57:06;;;;;;;;;;;13.40;99.90;;;;;;5084068;28;19926;-68
2021/09/25 01:59:55;;;;;;;;;;;13.40;99.90;;;;;;5078734;28;19928;-68
2021/09/25 02:02:44;;;;;;;;;;;13.40;99.90;;;;;;5084903;28;19920;-69
2021/09/25 02:05:33;;;;;;;;;;;13.40;99.90;;;;;;5085662;28;20018;-68
2021/09/25 02:08:22;;;;;;;;;;;13.30;99.90;;;;;;5088585;28;20403;-70
2021/09/25 02:11:17;;;;;;;;;;;13.30;99.90;;;;;;5085122;28;19920;-68
2021/09/25 02:14:07;;;;;;;;;;;13.20;99.90;;;;;;5089624;28;20458;-69
2021/09/25 02:16:56;;;;;;;;;;;13.20;99.90;;;;;;5078715;28;19920;-69
2021/09/25 02:19:44;;;;;;;;;;;13.20;99.90;;;;;;5064966;28;20356;-68
2021/09/25 02:22:33;;;;;;;;;;;13.10;99.90;;;;;;5085750;28;19924;-69
2021/09/25 02:25:22;;;;;;;;;;;13.10;99.90;;;;;;5090036;28;19919;-68
2021/09/25 02:28:11;;;;;;;;;;;13.10;99.90;;;;;;5085287;28;19947;-69
2021/09/25 02:31:25;;;;;;;;;;;13.10;99.90;;;;;;5081693;28;19920;-69
2021/09/25 02:34:18;;;;;;;;;;;13.00;99.90;;;;;;5085107;28;20326;-69
2021/09/25 02:37:08;;;;;;;;;;;13.00;99.90;;;;;;5082855;28;19924;-69
2021/09/25 02:40:00;;;;;;;;;;;13.00;99.90;;;;;;5082992;28;19924;-69
2021/09/25 02:42:48;;;;;;;;;;;13.10;99.90;;;;;;5085733;28;19924;-69
2021/09/25 02:45:38;;;;;;;;;;;13.10;99.90;;;;;;5074515;28;19972;-69
2021/09/25 02:51:41;;;;;;;;;;;13.00;99.90;;;;;;5085324;28;19963;-69
2021/09/25 02:54:29;;;;;;;;;;;13.00;99.90;;;;;;5096708;28;19927;-69
2021/09/25 02:57:19;;;;;;;;;;;13.00;99.90;;;;;;5091650;28;19966;-69
2021/09/25 03:00:09;;;;;;;;;;;13.00;99.90;;;;;;5076634;28;19927;-69
2021/09/25 03:02:58;;;;;;;;;;;13.00;99.90;;;;;;5092745;28;20336;-69
2021/09/25 03:05:48;;;;;;;;;;;13.00;99.90;;;;;;5088291;28;19974;-69
2021/09/25 03:08:37;;;;;;;;;;;13.00;99.90;;;;;;5086261;28;19932;-69
2021/09/25 03:11:28;;;;;;;;;;;13.00;99.90;;;;;;5076316;28;19963;-70
2021/09/25 03:14:17;;;;;;;;;;;12.90;99.90;;;;;;5088717;28;19924;-70
2021/09/25 03:17:06;;;;;;;;;;;13.00;99.90;;;;;;5079223;28;19920;-69
2021/09/25 03:19:54;;;;;;;;;;;13.00;99.90;;;;;;5085975;28;19998;-70
2021/09/25 03:22:45;;;;;;;;;;;12.90;99.90;;;;;;5082449;28;19928;-70
2021/09/25 03:25:34;;;;;;;;;;;12.90;99.90;;;;;;5082440;28;20383;-70
2021/09/25 03:28:23;;;;;;;;;;;12.90;99.90;;;;;;5066682;28;19939;-70
2021/09/25 03:31:15;;;;;;;;;;;12.80;99.90;;;;;;5062876;28;20050;-69
2021/09/25 03:34:06;;;;;;;;;;;12.80;99.90;;;;;;5086801;28;19920;-69
2021/09/25 03:36:56;;;;;;;;;;;12.70;99.90;;;;;;5080522;28;20279;-69
2021/09/25 03:39:46;;;;;;;;;;;12.70;99.90;;;;;;5082403;28;20390;-69
2021/09/25 03:42:34;;;;;;;;;;;12.80;99.90;;;;;;5089736;28;19920;-69
2021/09/25 03:45:26;;;;;;;;;;;12.80;99.90;;;;;;5081958;28;19938;-69
2021/09/25 03:48:18;;;;;;;;;;;12.70;99.90;;;;;;5084606;28;20336;-70
2021/09/25 03:51:14;;;;;;;;;;;12.70;99.90;;;;;;5092641;28;20583;-69
2021/09/25 03:54:03;;;;;;;;;;;12.70;99.90;;;;;;5080828;28;19920;-69
2021/09/25 03:56:54;;;;;;;;;;;12.80;99.90;;;;;;5082319;28;20364;-69
2021/09/25 04:02:56;;;;;;;;;;;12.80;99.90;;;;;;5086430;28;20359;-69
2021/09/25 04:05:45;;;;;;;;;;;12.70;99.90;;;;;;5085691;28;20034;-70
2021/09/25 04:08:34;;;;;;;;;;;12.70;99.90;;;;;;5079283;28;19921;-70
2021/09/25 04:11:24;;;;;;;;;;;12.60;99.90;;;;;;5085271;28;20371;-69
2021/09/25 04:14:15;;;;;;;;;;;12.60;99.90;;;;;;5085840;28;19927;-70
2021/09/25 04:17:04;;;;;;;;;;;12.70;99.90;;;;;;5064576;28;19920;-70
2021/09/25 04:19:53;;;;;;;;;;;12.70;99.90;;;;;;5079373;28;19927;-70
2021/09/25 04:22:42;;;;;;;;;;;12.60;99.90;;;;;;5084500;28;19924;-69
2021/09/25 04:25:31;;;;;;;;;;;12.60;99.90;;;;;;5091267;28;19924;-70
2021/09/25 04:28:23;;;;;;;;;;;12.60;99.90;;;;;;5067170;28;19963;-70
2021/09/25 04:31:16;;;;;;;;;;;12.60;99.90;;;;;;5077897;28;19942;-70
2021/09/25 04:34:06;;;;;;;;;;;12.50;99.90;;;;;;5065237;28;19960;-69
2021/09/25 04:36:54;;;;;;;;;;;12.50;99.90;;;;;;5087690;28;19920;-70
2021/09/25 04:40:08;;;;;;;;;;;12.50;99.90;;;;;;5080986;28;20336;-70
2021/09/25 04:42:57;;;;;;;;;;;12.50;99.90;;;;;;5080918;28;20381;-69
2021/09/25 04:45:46;;;;;;;;;;;12.50;99.90;;;;;;5075271;28;20296;-70
2021/09/25 04:48:40;;;;;;;;;;;12.50;99.90;;;;;;5087604;28;19920;-70
2021/09/25 04:57:56;;;;;;;;;;;12.50;99.90;;;;;;5090086;27;19927;-69
2021/09/25 05:00:44;;;;;;;;;;;12.50;99.90;;;;;;5077579;28;20387;-69
2021/09/25 05:03:34;;;;;;;;;;;12.50;99.90;;;;;;5082149;28;20442;-69
2021/09/25 05:06:25;;;;;;;;;;;12.40;99.90;;;;;;5090263;28;19928;-69
2021/09/25 05:09:13;;;;;;;;;;;12.40;99.90;;;;;;5084800;28;19920;-70
2021/09/25 05:12:07;;;;;;;;;;;12.40;99.90;;;;;;5079993;28;20483;-70
2021/09/25 05:14:56;;;;;;;;;;;12.40;99.90;;;;;;5090813;28;19920;-69
2021/09/25 05:17:45;;;;;;;;;;;12.40;99.90;;;;;;5074590;28;20011;-68
2021/09/25 05:20:34;;;;;;;;;;;12.40;99.90;;;;;;5093487;28;19923;-69
2021/09/25 05:23:25;;;;;;;;;;;12.30;99.90;;;;;;5084771;28;19919;-69
2021/09/25 05:26:15;;;;;;;;;;;12.30;99.90;;;;;;5085562;28;19943;-69
2021/09/25 05:29:04;;;;;;;;;;;12.30;99.90;;;;;;5084312;28;19935;-69
2021/09/25 05:31:53;;;;;;;;;;;12.30;99.90;;;;;;5068546;28;19929;-69
2021/09/25 05:34:42;;;;;;;;;;;12.30;99.90;;;;;;5067623;28;19920;-68
2021/09/25 05:37:31;;;;;;;;;;;12.30;99.90;;;;;;5085172;28;19928;-69
2021/09/25 05:40:22;;;;;;;;;;;12.30;99.90;;;;;;5083908;28;20035;-69
2021/09/25 05:43:11;;;;;;;;;;;12.30;99.90;;;;;;5085907;28;19920;-69
2021/09/25 05:45:59;;;;;;;;;;;12.30;99.90;;;;;;5079652;28;19931;-69
2021/09/25 05:48:51;;;;;;;;;;;12.30;99.90;;;;;;5085244;28;19970;-69
2021/09/25 05:51:41;;;;;;;;;;;12.30;99.90;;;;;;5085859;28;20459;-70
2021/09/25 05:54:29;;;;;;;;;;;12.30;99.90;;;;;;5088729;28;19924;-69
2021/09/25 05:57:19;;;;;;;;;;;12.30;99.90;;;;;;5086974;28;19920;-70
2021/09/25 06:00:08;;;;;;;;;;;12.30;99.90;;;;;;5084169;28;20098;-69
2021/09/25 06:03:01;;;;;;;;;;;12.30;99.90;;;;;;5085383;28;19928;-69
2021/09/25 06:05:51;;;;;;;;;;;12.30;99.90;;;;;;5073385;28;19934;-70
2021/09/25 06:08:40;;;;;;;;;;;12.30;99.90;;;;;;5083657;28;19959;-69
2021/09/25 06:11:28;;;;;;;;;;;12.40;99.90;;;;;;5090811;28;19931;-68
2021/09/25 06:14:19;;;;;;;;;;;12.40;99.90;;;;;;5088624;28;19920;-70
2021/09/25 06:17:07;;;;;;;;;;;12.40;99.90;;;;;;5083024;28;19920;-69
2021/09/25 06:19:59;;;;;;;;;;;12.50;99.90;;;;;;5090756;28;19954;-70
2021/09/25 06:22:48;;;;;;;;;;;12.50;99.90;;;;;;5089788;28;20010;-70
2021/09/25 06:25:37;;;;;;;;;;;12.60;99.90;;;;;;5076090;28;19928;-70
2021/09/25 06:31:40;;;;;;;;;;;12.70;99.90;;;;;;5079963;28;19927;-70
2021/09/25 06:34:29;;;;;;;;;;;12.80;99.90;;;;;;5089583;28;19931;-70
2021/09/25 06:37:18;;;;;;;;;;;12.80;99.90;;;;;;5086366;28;20393;-69
2021/09/25 06:40:11;;;;;;;;;;;12.90;99.90;;;;;;5085967;28;20089;-70
2021/09/25 06:43:00;;;;;;;;;;;12.80;99.90;;;;;;5092246;28;20292;-70
2021/09/25 06:45:49;;;;;;;;;;;12.90;99.90;;;;;;5091208;28;19926;-71
2021/09/25 06:48:39;;;;;;;;;;;12.90;99.90;;;;;;5090766;28;19997;-70
2021/09/25 06:51:28;;;;;;;;;;;13.00;99.90;;;;;;5083658;28;19924;-70
2021/09/25 06:54:17;;;;;;;;;;;13.10;99.90;;;;;;5080228;28;19927;-70
2021/09/25 06:57:05;;;;;;;;;;;13.10;99.90;;;;;;5092303;28;20279;-70
2021/09/25 06:59:56;;;;;;;;;;;13.10;99.90;;;;;;5087698;28;19972;-70
2021/09/25 07:02:45;;;;;;;;;;;13.20;99.90;;;;;;5086298;28;19920;-70
2021/09/25 07:05:36;;;;;;;;;;;13.30;99.90;;;;;;5086112;28;19920;-68
2021/09/25 07:08:25;;;;;;;;;;;13.40;99.90;;;;;;5082251;28;19927;-70
2021/09/25 07:14:30;;;;;;;;;;;13.50;99.90;;;;;;5082336;28;19920;-70
2021/09/25 07:17:19;;;;;;;;;;;13.60;99.90;;;;;;5081410;28;19920;-69
2021/09/25 07:20:09;;;;;;;;;;;13.70;99.90;;;;;;5084491;28;19920;-70
2021/09/25 07:22:59;;;;;;;;;;;13.80;99.90;;;;;;5083330;28;19928;-67
2021/09/25 07:25:48;;;;;;;;;;;13.90;99.90;;;;;;5098224;28;19920;-69
2021/09/25 07:28:37;;;;;;;;;;;14.00;99.90;;;;;;5094445;28;19942;-71
2021/09/25 07:31:26;;;;;;;;;;;14.20;99.90;;;;;;5084368;28;20007;-71
2021/09/25 07:34:16;;;;;;;;;;;14.30;99.90;;;;;;5094362;28;20323;-69
2021/09/25 07:37:04;;;;;;;;;;;14.40;99.90;;;;;;5092313;28;20387;-68
2021/09/25 07:39:55;;;;;;;;;;;14.50;99.90;;;;;;5093067;28;19927;-69
2021/09/25 07:42:45;;;;;;;;;;;14.70;99.90;;;;;;5093496;28;19927;-69
2021/09/25 07:45:34;;;;;;;;;;;14.80;99.90;;;;;;5080965;28;19931;-70
2021/09/25 07:48:23;;;;;;;;;;;14.90;99.90;;;;;;5089679;28;20030;-69
2021/09/25 07:51:37;;;;;;;;;;;15.00;99.90;;;;;;5086268;28;19920;-68
2021/09/25 07:54:26;;;;;;;;;;;15.10;99.90;;;;;;5107003;28;19920;-70
2021/09/25 07:57:17;;;;;;;;;;;15.20;99.90;;;;;;5091891;28;20010;-68
2021/09/25 08:00:30;;;;;;;;;;;15.30;99.90;;;;;;5061556;28;19924;-69
2021/09/25 08:03:19;;;;;;;;;;;15.40;99.90;;;;;;5062884;28;19931;-69
2021/09/25 08:09:45;;;;;;;;;;;15.70;99.90;;;;;;5073035;28;20389;-70
2021/09/25 08:12:35;;;;;;;;;;;15.90;99.90;;;;;;5082684;28;19928;-67
2021/09/25 08:15:25;;;;;;;;;;;16.00;99.90;;;;;;5073659;28;20014;-69
2021/09/25 08:18:14;;;;;;;;;;;16.00;99.90;;;;;;5078606;28;19920;-70
2021/09/25 08:21:03;;;;;;;;;;;16.20;99.90;;;;;;5072785;28;19920;-69
2021/09/25 08:23:52;;;;;;;;;;;16.30;99.90;;;;;;5071156;28;19924;-70
2021/09/25 08:26:41;;;;;;;;;;;16.20;99.90;;;;;;5064589;28;19920;-71
2021/09/25 08:29:32;;;;;;;;;;;16.40;99.90;;;;;;5078462;28;19987;-70
2021/09/25 08:32:21;;;;;;;;;;;16.40;99.90;;;;;;5064165;28;19935;-69
2021/09/25 08:35:09;;;;;;;;;;;16.50;99.90;;;;;;5064991;28;20406;-69
2021/09/25 08:37:58;;;;;;;;;;;16.70;99.90;;;;;;5067427;28;19920;-70
2021/09/25 08:40:47;;;;;;;;;;;16.80;99.90;;;;;;5058363;28;20348;-70
2021/09/25 08:43:36;;;;;;;;;;;17.00;99.90;;;;;;5092731;28;19926;-73
2021/09/25 08:46:27;;;;;;;;;;;17.10;99.90;;;;;;5085357;28;20256;-70
2021/09/25 08:49:16;;;;;;;;;;;17.20;99.90;;;;;;5084032;28;19920;-71
2021/09/25 08:52:06;;;;;;;;;;;17.20;99.90;;;;;;5076608;28;19927;-69
2021/09/25 08:54:54;;;;;;;;;;;17.10;99.90;;;;;;5079120;28;19932;-70
2021/09/25 08:57:43;;;;;;;;;;;17.30;99.90;;;;;;5084602;28;19920;-69
2021/09/25 09:00:33;;;;;;;;;;;17.50;99.90;;;;;;5079028;28;19978;-71
2021/09/25 09:03:34;;;;;;;;;;;17.60;99.90;;;;;;5069267;28;19935;-67
2021/09/25 09:06:25;;;;;;;;;;;17.50;99.90;;;;;;5070268;28;19920;-67
2021/09/25 09:09:13;;;;;;;;;;;17.50;99.90;;;;;;5065316;28;19986;-68
2021/09/25 09:12:02;;;;;;;;;;;17.60;99.90;;;;;;5068423;28;20038;-68
2021/09/25 09:14:52;;;;;;;;;;;17.80;99.90;;;;;;5071686;28;19931;-68
2021/09/25 09:17:43;;;;;;;;;;;18.00;99.90;;;;;;5065710;28;19920;-68
2021/09/25 09:20:35;;;;;;;;;;;18.20;99.90;;;;;;5086065;28;19924;-68
2021/09/25 09:23:28;;;;;;;;;;;18.40;99.90;;;;;;5082764;28;20013;-70
2021/09/25 09:26:20;;;;;;;;;;;18.50;99.90;;;;;;5083095;28;19920;-70
2021/09/25 09:29:10;;;;;;;;;;;18.60;99.90;;;;;;5085415;28;20287;-72
2021/09/25 09:32:01;;;;;;;;;;;18.50;99.90;;;;;;5070104;28;19927;-72
2021/09/25 09:34:50;;;;;;;;;;;18.70;99.90;;;;;;5073443;28;19924;-73
2021/09/25 09:38:05;;;;;;;;;;;18.80;99.90;;;;;;5074934;28;19920;-70
2021/09/25 09:40:57;;;;;;;;;;;18.90;99.90;;;;;;5064151;28;19934;-70
2021/09/25 09:43:46;;;;;;;;;;;18.90;99.90;;;;;;5061163;28;19927;-70
2021/09/25 09:46:36;;;;;;;;;;;19.10;99.90;;;;;;5064159;28;19931;-70
2021/09/25 09:49:26;;;;;;;;;;;19.20;99.90;;;;;;5085047;28;19927;-71
2021/09/25 09:52:15;;;;;;;;;;;19.40;99.90;;;;;;5075165;28;19920;-68
2021/09/25 09:55:06;;;;;;;;;;;19.50;99.90;;;;;;5092553;28;19920;-67
2021/09/25 09:58:01;;;;;;;;;;;19.60;99.90;;;;;;5099408;28;20010;-68
2021/09/25 10:00:50;;;;;;;;;;;19.70;99.90;;;;;;5075102;28;19920;-67
2021/09/25 10:03:41;;;;;;;;;;;19.60;99.90;;;;;;5079095;28;19986;-68
2021/09/25 10:06:33;;;;;;;;;;;19.80;99.90;;;;;;5077467;28;19920;-67
2021/09/25 10:09:45;;;;;;;;;;;19.90;99.90;;;;;;5078561;28;19920;-66
2021/09/25 10:12:35;;;;;;;;;;;19.90;99.90;;;;;;5071316;28;19930;-69
2021/09/25 10:15:25;;;;;;;;;;;20.00;99.90;;;;;;5068441;28;19924;-68
2021/09/25 10:18:15;;;;;;;;;;;20.10;99.90;;;;;;5093989;28;19920;-66
2021/09/25 10:21:05;;;;;;;;;;;20.20;99.90;;;;;;5093353;28;19920;-69
2021/09/25 10:23:57;;;;;;;;;;;20.30;99.90;;;;;;5113368;28;19927;-72
2021/09/25 10:26:47;;;;;;;;;;;20.30;99.90;;;;;;5082277;28;19920;-69
2021/09/25 10:29:44;;;;;;;;;;;20.30;99.90;;;;;;5095135;28;19983;-70
2021/09/25 10:32:36;;;;;;;;;;;20.20;99.90;;;;;;5081713;28;19931;-69
2021/09/25 10:35:26;;;;;;;;;;;20.30;99.90;;;;;;5069935;28;19920;-69
2021/09/25 10:38:30;;;;;;;;;;;20.30;99.90;;;;;;5078465;28;19927;-70
2021/09/25 10:41:43;;;;;;;;;;;20.40;99.90;;;;;;5077871;28;19948;-69
2021/09/25 10:44:33;;;;;;;;;;;20.60;99.90;;;;;;5073334;28;19920;-69
2021/09/25 10:48:04;;;;;;;;;;;20.60;99.90;;;;;;5077643;28;20102;-69
2021/09/25 10:50:55;;;;;;;;;;;20.40;99.90;;;;;;5079585;28;19926;-73
2021/09/25 10:53:45;;;;;;;;;;;20.30;99.90;;;;;;5076067;28;19928;-69
2021/09/25 10:56:34;;;;;;;;;;;20.50;99.90;;;;;;5067320;28;19924;-69
2021/09/25 10:59:23;;;;;;;;;;;20.60;99.90;;;;;;5078591;28;19920;-70
2021/09/25 11:02:33;;;;;;;;;;;20.70;99.90;;;;;;5078533;28;19928;-70
2021/09/25 11:05:37;;;;;;;;;;;20.50;99.90;;;;;;5086018;28;19975;-70
2021/09/25 11:08:32;;;;;;;;;;;20.60;99.90;;;;;;5085179;28;19921;-70
2021/09/25 11:11:30;;;;;;;;;;;20.80;99.90;;;;;;5093349;28;19924;-70
2021/09/25 11:14:22;;;;;;;;;;;20.90;99.90;;;;;;5088102;28;19924;-69
2021/09/25 11:17:25;;;;;;;;;;;20.90;99.90;;;;;;5058057;28;20497;-70
2021/09/25 11:20:20;;;;;;;;;;;21.10;99.90;;;;;;5078621;28;19920;-70
2021/09/25 11:23:08;;;;;;;;;;;21.20;99.90;;;;;;5086892;28;19970;-71
2021/09/25 11:25:59;;;;;;;;;;;21.30;99.90;;;;;;5074302;28;19920;-69
2021/09/25 11:28:48;;;;;;;;;;;21.40;99.90;;;;;;5074231;28;19920;-71
2021/09/25 11:31:37;;;;;;;;;;;21.40;99.90;;;;;;5081109;28;19920;-70
2021/09/25 11:34:27;;;;;;;;;;;21.30;99.90;;;;;;5099382;28;19920;-70
2021/09/25 11:37:16;;;;;;;;;;;21.30;99.90;;;;;;5083590;28;19928;-70
2021/09/25 11:40:06;;;;;;;;;;;21.40;99.90;;;;;;5097940;28;20417;-70
2021/09/25 11:43:04;;;;;;;;;;;21.50;99.90;;;;;;5070061;28;20006;-69
2021/09/25 11:45:55;;;;;;;;;;;21.50;99.90;;;;;;5065626;28;20323;-69
2021/09/25 11:48:45;;;;;;;;;;;21.50;99.90;;;;;;5066386;28;19949;-70
2021/09/25 11:51:34;;;;;;;;;;;21.60;99.90;;;;;;5055717;28;20378;-69
2021/09/25 11:54:25;;;;;;;;;;;21.50;99.90;;;;;;5058069;28;19932;-69
2021/09/25 11:57:14;;;;;;;;;;;21.40;99.90;;;;;;5058743;28;19948;-69
2021/09/25 12:00:28;;;;;;;;;;;21.30;99.90;;;;;;5035807;28;20018;-69
2021/09/25 12:03:19;;;;;;;;;;;21.30;99.90;;;;;;5045936;28;19927;-73
2021/09/25 12:06:12;;;;;;;;;;;21.30;99.90;;;;;;5056197;28;19929;-70
2021/09/25 12:09:26;;;;;;;;;;;21.50;99.90;;;;;;5060609;28;19980;-70
2021/09/25 12:12:15;;;;;;;;;;;21.50;99.90;;;;;;5043836;28;19928;-70
2021/09/25 12:15:11;;;;;;;;;;;21.60;99.90;;;;;;5054303;28;19931;-69
2021/09/25 12:18:14;;;;;;;;;;;21.60;99.90;;;;;;5098758;28;19920;-70
2021/09/25 12:24:44;;;;;;;;;;;21.70;99.90;;;;;;5097805;28;19923;-72
2021/09/25 12:27:33;;;;;;;;;;;21.60;99.90;;;;;;5093537;28;19920;-70
2021/09/25 12:30:23;;;;;;;;;;;21.70;99.90;;;;;;5085380;28;19969;-71
2021/09/25 12:33:17;;;;;;;;;;;21.80;99.90;;;;;;5091642;28;19920;-72
2021/09/25 12:39:24;;;;;;;;;;;21.90;99.90;;;;;;5097038;28;20007;-70
2021/09/25 12:42:23;;;;;;;;;;;21.80;99.90;;;;;;5095756;28;20269;-70
2021/09/25 12:45:14;;;;;;;;;;;21.80;99.90;;;;;;5080265;28;22556;-70
2021/09/25 12:48:13;;;;;;;;;;;21.80;99.90;;;;;;5087243;28;19928;-69
2021/09/25 12:54:17;;;;;;;;;;;21.80;99.90;;;;;;5082773;28;19925;-70
2021/09/25 12:57:11;;;;;;;;;;;21.80;99.90;;;;;;5076027;28;19924;-69
2021/09/25 13:00:01;;;;;;;;;;;21.80;99.90;;;;;;5089375;28;19925;-69
2021/09/25 13:03:15;;;;;;;;;;;21.80;99.90;;;;;;5088903;28;19931;-70
2021/09/25 13:06:23;;;;;;;;;;;21.90;99.90;;;;;;5091408;28;19924;-70
2021/09/25 13:09:17;;;;;;;;;;;22.00;99.90;;;;;;5094169;28;19999;-69
2021/09/25 13:12:07;;;;;;;;;;;22.00;99.90;;;;;;5080856;28;19963;-70
2021/09/25 13:15:00;;;;;;;;;;;22.00;99.90;;;;;;5089362;28;19963;-69
2021/09/25 13:17:49;;;;;;;;;;;22.00;99.90;;;;;;5091926;28;20391;-70
2021/09/25 13:20:38;;;;;;;;;;;22.00;99.90;;;;;;5077815;28;19925;-72
2021/09/25 13:23:28;;;;;;;;;;;22.10;99.90;;;;;;5082308;28;20002;-69
2021/09/25 13:26:20;;;;;;;;;;;22.10;99.90;;;;;;5088746;28;19931;-69
2021/09/25 13:29:09;;;;;;;;;;;22.20;99.90;;;;;;5068267;28;19924;-69
2021/09/25 13:31:58;;;;;;;;;;;22.20;99.90;;;;;;5068683;28;20324;-69
2021/09/25 13:37:59;;;;;;;;;;;22.10;99.20;;;;;;5073871;28;19924;-69
2021/09/25 13:40:48;;;;;;;;;;;22.20;99.50;;;;;;5088432;28;20053;-69
2021/09/25 13:43:38;;;;;;;;;;;22.20;99.50;;;;;;5077945;28;20395;-70
2021/09/25 13:46:27;;;;;;;;;;;22.30;99.90;;;;;;5079007;28;19930;-72
2021/09/25 13:49:17;;;;;;;;;;;22.30;99.90;;;;;;5073158;28;19924;-69
2021/09/25 13:52:10;;;;;;;;;;;22.40;99.90;;;;;;5088789;28;19931;-71
2021/09/25 13:54:58;;;;;;;;;;;22.40;99.80;;;;;;5090688;28;19927;-70
2021/09/25 13:57:47;;;;;;;;;;;22.40;99.90;;;;;;5088750;28;20008;-70
2021/09/25 14:00:39;;;;;;;;;;;22.40;99.20;;;;;;5089814;28;20395;-70
2021/09/25 14:03:29;;;;;;;;;;;22.50;99.50;;;;;;5089107;28;20358;-70
2021/09/25 14:06:19;;;;;;;;;;;22.50;98.80;;;;;;5087995;28;20021;-70
2021/09/25 14:09:08;;;;;;;;;;;22.60;99.00;;;;;;5090686;28;20064;-70
2021/09/25 14:11:58;;;;;;;;;;;22.60;99.10;;;;;;5089375;28;20332;-70
2021/09/25 14:14:46;;;;;;;;;;;22.60;99.00;;;;;;5091282;28;19930;-70
2021/09/25 14:17:36;;;;;;;;;;;22.50;99.40;;;;;;5087213;28;19924;-69
2021/09/25 14:20:26;;;;;;;;;;;22.50;99.30;;;;;;5086299;28;19924;-70
2021/09/25 14:23:21;;;;;;;;;;;22.50;98.80;;;;;;5086692;28;19959;-70
2021/09/25 14:26:19;;;;;;;;;;;22.50;99.10;;;;;;5088719;28;19927;-71
2021/09/25 14:29:08;;;;;;;;;;;22.50;99.10;;;;;;5090719;28;20057;-69
2021/09/25 14:35:45;;;;;;;;;;;22.60;99.00;;;;;;5083546;28;20371;-71
2021/09/25 14:38:34;;;;;;;;;;;22.60;99.10;;;;;;5095291;28;19935;-69
2021/09/25 14:41:23;;;;;;;;;;;22.60;99.20;;;;;;5086589;28;19934;-69
2021/09/25 14:44:15;;;;;;;;;;;22.60;98.90;;;;;;5082235;28;19951;-69
2021/09/25 14:47:04;;;;;;;;;;;22.60;98.90;;;;;;5074073;28;19970;-69
2021/09/25 14:49:53;;;;;;;;;;;22.70;99.00;;;;;;5074569;28;19925;-69
2021/09/25 14:52:44;;;;;;;;;;;22.70;99.00;;;;;;5084196;28;19978;-69
2021/09/25 14:55:33;;;;;;;;;;;22.70;99.20;;;;;;5074895;28;19924;-69
2021/09/25 14:58:22;;;;;;;;;;;22.70;99.30;;;;;;5078188;28;19931;-70
2021/09/25 15:01:11;;;;;;;;;;;22.50;99.40;;;;;;5058422;28;19928;-70
2021/09/25 15:04:01;;;;;;;;;;;22.50;99.10;;;;;;5082776;28;19972;-69
2021/09/25 15:06:51;;;;;;;;;;;22.70;99.10;;;;;;5076623;28;20264;-70
2021/09/25 15:09:41;;;;;;;;;;;22.70;99.00;;;;;;5074046;28;20291;-70
2021/09/25 15:12:31;;;;;;;;;;;22.70;98.50;;;;;;5072371;28;19924;-69
2021/09/25 15:15:20;;;;;;;;;;;22.80;98.10;;;;;;5075317;28;19987;-74
2021/09/25 15:18:08;;;;;;;;;;;22.80;98.10;;;;;;5076722;28;20085;-69
2021/09/25 15:20:57;;;;;;;;;;;22.80;97.70;;;;;;5071103;28;19924;-69
2021/09/25 15:23:45;;;;;;;;;;;22.90;97.90;;;;;;5075497;28;19929;-69
2021/09/25 15:26:36;;;;;;;;;;;22.90;97.50;;;;;;5072625;28;19934;-70
2021/09/25 15:29:25;;;;;;;;;;;22.90;97.60;;;;;;5071097;28;19928;-69
2021/09/25 15:32:15;;;;;;;;;;;22.80;97.40;;;;;;5068218;28;19943;-75
2021/09/25 15:35:04;;;;;;;;;;;22.80;97.60;;;;;;5078141;28;19931;-69
2021/09/25 15:38:17;;;;;;;;;;;22.70;97.70;;;;;;5081711;28;20018;-69
2021/09/25 15:41:07;;;;;;;;;;;22.70;97.60;;;;;;5081924;28;20356;-69
2021/09/25 15:43:58;;;;;;;;;;;22.60;97.60;;;;;;5071475;28;19931;-69
2021/09/25 15:46:46;;;;;;;;;;;22.60;97.60;;;;;;5075587;28;19946;-70
2021/09/25 15:49:35;;;;;;;;;;;22.60;97.90;;;;;;5094321;28;19935;-69
2021/09/25 15:52:24;;;;;;;;;;;22.50;97.80;;;;;;5083243;28;19977;-70
2021/09/25 15:55:16;;;;;;;;;;;22.50;97.70;;;;;;5096603;28;19966;-70
2021/09/25 15:58:05;;;;;;;;;;;22.40;97.70;;;;;;5086431;28;20281;-69
2021/09/25 16:00:56;;;;;;;;;;;22.30;97.50;;;;;;5080887;28;19925;-72
2021/09/25 16:03:45;;;;;;;;;;;22.30;97.50;;;;;;5083930;28;19928;-69
2021/09/25 16:06:35;;;;;;;;;;;22.20;97.70;;;;;;5080267;28;20303;-69
2021/09/25 16:09:40;;;;;;;;;;;22.10;97.70;;;;;;5078537;28;19924;-70
2021/09/25 16:12:29;;;;;;;;;;;22.00;97.50;;;;;;5077431;28;20271;-70
2021/09/25 16:15:26;;;;;;;;;;;22.00;97.50;;;;;;5067207;28;19932;-70
2021/09/25 16:18:40;;;;;;;;;;;21.90;97.80;;;;;;5065621;28;19966;-69
2021/09/25 16:21:56;;;;;;;;;;;21.80;98.40;;;;;;5074404;28;19924;-69
2021/09/25 16:24:55;;;;;;;;;;;;;;;;;;;;;
2021/09/25 16:27:49;;;;;;;;;;;21.70;98.40;;;;;;5069694;28;19924;-68
2021/09/25 16:30:41;;;;;;;;;;;21.70;99.30;;;;;;5063484;28;19978;-68
2021/09/25 16:33:31;;;;;;;;;;;21.50;99.50;;;;;;5060288;28;20417;-69
2021/09/25 16:36:20;;;;;;;;;;;21.40;99.50;;;;;;5076254;28;19956;-69
2021/09/25 16:39:11;;;;;;;;;;;21.40;99.70;;;;;;5074312;28;20454;-70
2021/09/25 16:42:00;;;;;;;;;;;21.30;99.90;;;;;;5075202;28;19950;-71
2021/09/25 16:44:50;;;;;;;;;;;21.30;99.90;;;;;;5076386;28;19933;-70
2021/09/25 16:47:39;;;;;;;;;;;21.30;99.90;;;;;;5069818;28;20272;-74
2021/09/25 16:50:54;;;;;;;;;;;21.30;99.90;;;;;;5072705;28;19925;-70
2021/09/25 16:53:43;;;;;;;;;;;21.20;99.90;;;;;;5054141;28;19925;-70
2021/09/25 16:56:33;;;;;;;;;;;21.20;99.90;;;;;;5041912;28;19931;-72
2021/09/25 16:59:25;;;;;;;;;;;21.10;99.90;;;;;;5068315;28;20013;-73
2021/09/25 17:02:13;;;;;;;;;;;21.00;99.90;;;;;;5034961;28;19933;-71
2021/09/25 17:05:28;;;;;;;;;;;21.00;99.90;;;;;;5037988;28;20024;-68
2021/09/25 17:08:17;;;;;;;;;;;20.90;99.90;;;;;;5037247;28;19931;-72
2021/09/25 17:11:09;;;;;;;;;;;20.80;99.90;;;;;;5037576;28;19975;-70
2021/09/25 17:13:59;;;;;;;;;;;20.80;99.90;;;;;;5040808;28;20019;-71
2021/09/25 17:16:49;;;;;;;;;;;20.70;99.90;;;;;;5057758;28;19960;-70
2021/09/25 17:19:37;;;;;;;;;;;20.70;99.90;;;;;;5061969;28;20287;-70
2021/09/25 17:22:26;;;;;;;;;;;20.60;99.90;;;;;;5063836;28;19971;-70